createdAt,value
2018-11-27T00:03:56.133Z,5.50
2018-11-27T00:07:59.892Z,5.60
2018-11-27T00:12:03.657Z,5.60
2018-11-27T00:16:07.344Z,5.60
2018-11-27T00:20:12.274Z,5.60
2018-11-27T00:24:15.961Z,5.60
2018-11-27T00:28:19.634Z,5.60
2018-11-27T00:32:23.360Z,5.60
2018-11-27T00:36:27.126Z,5.70
2018-11-27T00:40:30.899Z,5.60
2018-11-27T00:44:34.623Z,5.60
2018-11-27T00:48:38.289Z,5.60
2018-11-27T00:52:42.044Z,5.60
2018-11-27T00:56:45.781Z,5.60
2018-11-27T01:00:49.500Z,5.60
2018-11-27T01:04:53.233Z,5.50
2018-11-27T01:08:56.985Z,5.50
2018-11-27T01:13:01.528Z,5.50
2018-11-27T01:17:05.562Z,5.50
2018-11-27T01:21:09.288Z,5.50
2018-11-27T01:25:13.231Z,5.40
2018-11-27T01:29:16.927Z,5.40
2018-11-27T01:33:20.671Z,5.30
2018-11-27T01:37:24.418Z,5.30
2018-11-27T01:41:28.102Z,5.30
2018-11-27T01:45:31.847Z,5.30
2018-11-27T01:49:35.547Z,5.30
2018-11-27T01:58:05.651Z,5.20
2018-11-27T02:02:09.390Z,5.10
2018-11-27T02:06:13.113Z,5.10
2018-11-27T02:10:16.870Z,5.10
2018-11-27T02:14:20.538Z,5.00
2018-11-27T02:18:24.214Z,5.00
2018-11-27T02:22:27.863Z,4.90
2018-11-27T02:26:31.576Z,4.90
2018-11-27T02:30:35.593Z,4.80
2018-11-27T02:34:39.338Z,4.70
2018-11-27T02:38:43.034Z,4.60
2018-11-27T02:42:46.719Z,4.60
2018-11-27T02:46:50.408Z,4.50
2018-11-27T02:50:54.086Z,4.40
2018-11-27T02:54:57.778Z,4.30
2018-11-27T02:59:01.543Z,4.20
2018-11-27T03:03:05.668Z,4.20
2018-11-27T03:07:09.433Z,4.10
2018-11-27T03:15:01.914Z,4.00
2018-11-27T03:19:05.725Z,3.90
2018-11-27T03:24:14.783Z,3.80
2018-11-27T03:28:18.463Z,3.80
2018-11-27T03:32:22.348Z,3.80
2018-11-27T03:36:26.003Z,3.70
2018-11-27T03:40:29.845Z,3.70
2018-11-27T03:44:33.546Z,3.70
2018-11-27T03:48:37.262Z,3.70
2018-11-27T03:52:40.965Z,3.60
2018-11-27T03:56:44.659Z,3.60
2018-11-27T04:00:48.402Z,3.50
2018-11-27T04:04:52.142Z,3.50
2018-11-27T04:08:55.863Z,3.40
2018-11-27T04:12:59.734Z,3.40
2018-11-27T04:17:03.511Z,3.30
2018-11-27T04:21:07.342Z,3.30
2018-11-27T04:25:12.244Z,3.20
2018-11-27T04:40:37.521Z,3.10
2018-11-27T04:44:41.266Z,3.10
2018-11-27T04:48:44.993Z,3.10
2018-11-27T04:52:48.807Z,3.10
2018-11-27T05:01:09.709Z,3.10
2018-11-27T05:06:52.486Z,3.10
2018-11-27T05:12:43.773Z,3.10
2018-11-27T05:16:47.471Z,3.10
2018-11-27T05:20:51.202Z,3.00
2018-11-27T05:24:54.930Z,3.00
2018-11-27T05:36:33.222Z,3.00
2018-11-27T05:40:36.942Z,3.00
2018-11-27T05:44:40.619Z,3.00
2018-11-27T05:49:01.693Z,3.00
2018-11-27T05:53:06.207Z,3.00
2018-11-27T05:57:09.991Z,3.00
2018-11-27T06:01:13.697Z,3.00
2018-11-27T06:05:18.581Z,3.00
2018-11-27T06:09:22.412Z,3.00
2018-11-27T06:13:26.160Z,3.00
2018-11-27T06:17:29.914Z,3.00
2018-11-27T06:21:33.643Z,2.90
2018-11-27T06:34:23.691Z,2.70
2018-11-27T06:55:33.298Z,2.80
2018-11-27T07:03:38.647Z,2.80
2018-11-27T08:07:27.734Z,2.80
2018-11-27T08:11:31.405Z,2.80
2018-11-27T08:15:35.166Z,2.80
2018-11-27T08:19:38.895Z,2.80
2018-11-27T08:23:42.605Z,2.80
2018-11-27T08:27:46.358Z,2.80
2018-11-27T08:31:50.096Z,2.80
2018-11-27T08:37:21.722Z,2.70
2018-11-27T08:41:25.385Z,2.70
2018-11-27T08:50:19.234Z,2.80
2018-11-27T09:00:22.292Z,2.80
2018-11-27T10:07:59.200Z,3.20
2018-11-27T10:12:02.921Z,3.30
2018-11-27T10:16:06.834Z,3.30
2018-11-27T10:20:13.221Z,3.40
2018-11-27T10:24:16.938Z,3.40
2018-11-27T10:28:20.623Z,3.40
2018-11-27T10:32:24.310Z,3.40
2018-11-27T10:36:28.011Z,3.50
2018-11-27T10:40:31.717Z,3.50
2018-11-27T10:44:35.770Z,3.60
2018-11-27T10:48:39.484Z,3.60
2018-11-27T10:52:45.173Z,3.50
2018-11-27T11:01:24.061Z,3.50
2018-11-27T11:08:33.150Z,3.60
2018-11-27T11:12:36.883Z,3.60
2018-11-27T11:20:32.778Z,3.60
2018-11-27T11:30:46.106Z,3.60
2018-11-27T11:34:50.030Z,3.70
2018-11-27T12:18:09.253Z,3.80
2018-11-27T12:24:20.774Z,3.80
2018-11-27T12:47:26.803Z,3.70
2018-11-27T12:51:30.506Z,3.30
2018-11-27T12:55:34.398Z,3.10
2018-11-27T12:59:38.086Z,2.80
2018-11-27T13:03:41.843Z,2.80
2018-11-27T13:07:45.559Z,2.80
2018-11-27T13:11:49.293Z,2.70
2018-11-27T13:15:52.977Z,2.60
2018-11-27T13:19:56.744Z,2.60
2018-11-27T13:24:00.431Z,2.60
2018-11-27T13:28:04.198Z,2.50
2018-11-27T13:32:08.704Z,2.40
2018-11-27T13:36:12.455Z,2.40
2018-11-27T13:40:16.219Z,2.30
2018-11-27T13:44:19.864Z,2.30
2018-11-27T13:48:23.623Z,2.30
2018-11-27T13:52:27.411Z,2.20
2018-11-27T14:03:01.804Z,2.10
2018-11-27T14:07:05.515Z,2.20
2018-11-27T14:11:09.300Z,2.10
2018-11-27T14:15:14.601Z,2.20
2018-11-27T14:19:18.378Z,2.10
2018-11-27T14:23:22.132Z,2.10
2018-11-27T14:27:25.863Z,2.10
2018-11-27T14:31:29.735Z,2.00
2018-11-27T14:35:40.062Z,2.00
2018-11-27T14:39:43.788Z,2.00
2018-11-27T14:43:47.590Z,2.00
2018-11-27T14:47:53.834Z,2.00
2018-11-27T14:51:57.511Z,2.00
2018-11-27T14:56:01.231Z,2.00
2018-11-27T15:00:06.117Z,2.00
2018-11-27T15:04:09.854Z,1.90
2018-11-27T15:08:14.138Z,1.90
2018-11-27T15:12:17.898Z,1.90
2018-11-27T15:16:21.660Z,1.80
2018-11-27T15:28:51.821Z,1.70
2018-11-27T15:32:56.719Z,2.10
2018-11-27T15:37:00.493Z,2.30
2018-11-27T15:41:04.241Z,2.40
2018-11-27T15:45:09.876Z,2.60
2018-11-27T15:49:13.667Z,2.60
2018-11-27T15:53:17.425Z,2.60
2018-11-27T15:57:21.170Z,2.60
2018-11-27T16:01:24.869Z,2.70
2018-11-27T16:05:28.683Z,2.60
2018-11-27T16:09:40.089Z,2.60
2018-11-27T16:13:44.058Z,2.60
2018-11-27T16:17:50.650Z,2.60
2018-11-27T16:21:58.218Z,2.60
2018-11-27T16:26:01.998Z,2.60
2018-11-27T16:30:13.209Z,2.60
2018-11-27T16:34:16.943Z,2.50
2018-11-27T16:38:20.656Z,2.50
2018-11-27T16:42:24.370Z,2.50
2018-11-27T16:46:28.062Z,2.40
2018-11-27T16:50:31.766Z,2.40
2018-11-27T16:54:35.517Z,2.30
2018-11-27T16:58:39.209Z,2.30
2018-11-27T17:02:42.904Z,2.20
2018-11-27T17:06:46.620Z,2.30
2018-11-27T17:10:50.324Z,2.20
2018-11-27T17:14:54.046Z,2.20
2018-11-27T17:18:57.770Z,2.10
2018-11-27T17:23:03.501Z,2.10
2018-11-27T17:27:07.918Z,2.00
2018-11-27T17:31:13.812Z,2.00
2018-11-27T17:35:17.530Z,2.00
2018-11-27T17:39:21.264Z,2.00
2018-11-27T17:43:25.043Z,2.00
2018-11-27T17:47:28.719Z,2.00
2018-11-27T17:51:32.453Z,1.90
2018-11-27T17:55:36.235Z,1.90
2018-11-27T17:59:40.030Z,1.80
2018-11-27T18:03:43.778Z,1.80
2018-11-27T18:07:47.482Z,1.80
2018-11-27T18:11:51.210Z,1.80
2018-11-27T18:15:54.963Z,1.70
2018-11-27T18:19:58.702Z,1.70
2018-11-27T18:24:02.535Z,1.70
2018-11-27T18:28:06.547Z,1.60
2018-11-27T18:32:10.404Z,1.60
2018-11-27T18:39:03.598Z,1.50
2018-11-27T18:43:07.546Z,1.50
2018-11-27T18:47:11.397Z,1.40
2018-11-27T18:51:15.292Z,1.40
2018-11-27T18:55:19.180Z,1.40
2018-11-27T18:59:23.221Z,1.30
2018-11-27T19:03:26.910Z,1.40
2018-11-27T19:07:30.601Z,1.30
2018-11-27T19:11:34.441Z,1.30
2018-11-27T19:51:31.001Z,0.90
2018-11-27T19:55:48.630Z,0.90
2018-11-27T19:59:52.479Z,0.40
2018-11-27T20:03:56.456Z,0.20
2018-11-27T20:08:00.382Z,0.10
2018-11-27T20:12:04.342Z,0.30
2018-11-27T20:16:08.884Z,0.50
2018-11-27T20:20:13.921Z,0.70
2018-11-27T20:24:17.578Z,0.80
2018-11-27T20:28:21.291Z,0.80
2018-11-27T20:32:25.026Z,0.80
2018-11-27T20:36:28.750Z,0.80
2018-11-27T20:40:32.450Z,0.80
2018-11-27T20:45:37.627Z,0.80
2018-11-27T20:49:41.270Z,0.80
2018-11-27T20:53:44.978Z,0.80
2018-11-27T20:57:52.358Z,0.80
2018-11-27T21:30:58.933Z,0.60
2018-11-27T21:53:00.851Z,0.60
2018-11-27T22:10:17.925Z,0.50
2018-11-27T22:21:06.281Z,0.50
2018-11-27T22:25:11.742Z,0.50
2018-11-27T22:42:44.991Z,0.40
2018-11-27T22:46:48.677Z,0.40
2018-11-27T22:50:52.391Z,0.40
2018-11-27T23:20:24.784Z,0.20
2018-11-27T23:24:28.546Z,0.20
